PWSweather.com
Personal Weather Stations
Station Observations
MAKAWAOWX1
Up Country Maui, Makawao, HI 96768

Up Country MauiMakawao, HI 96768

Lat: 20.856944, Lon: -156.3149667

Elevation: 1500

Station Type: Davis Vantage Pro

Latest ConditionsUpdated 9:50:34 AM HST Friday, Oct 31, 2014
Currently Today's Max Today's Min Today's Average
Temperature 79.6°F26.4°C 79.6°F26.4°C 68.1°F20.1°C 70.7°F21.5°C
Dew Point 67.2°F19.6°C 68.0°F20.0°C 59.9°F15.5°C 63.2°F17.3°C
Winds 2.9 mph ESE4.7 kmh ESE 13.5 mph E21.7 kmh E - 6.3 mph 10.1 kmh
Wind Gusts 7.0 mph11.3 kmh 18.0 mph29.0 kmh - -
Humidity 66% 87% 66% 78%
Pressure 29.98 in1015.2 mb 29.99 in1015.6 mb 29.92 in1013.2 mb -
Hour Temp Dew Point Humidity Winds Wind Gusts Pressure Precip Precip Rate Daily Precip Total
09:50 AM 79.6°F26.4°C 67.2°F19.6°C 66% 2.9 mph ESE4.7 kmh ESE 7.0 mph11.3 kmh 29.98 in1015.2 mb 0.00 in0.0 mm 0.00 in/hr0.0 mm/hr 0.00 in0.0 mm
09:40 AM 78.4°F25.8°C 66.5°F19.2°C 67% 9.9 mph E15.9 kmh E 11.0 mph17.7 kmh 29.98 in1015.2 mb 0.00 in0.0 mm 0.00 in/hr0.0 mm/hr 0.00 in0.0 mm
09:30 AM 77.4°F25.2°C 66.0°F18.9°C 68% 13.5 mph E21.7 kmh E 18.0 mph29.0 kmh 29.98 in1015.2 mb 0.00 in0.0 mm 0.00 in/hr0.0 mm/hr 0.00 in0.0 mm
09:20 AM 76.9°F24.9°C 68.0°F20.0°C 74% 8.6 mph ESE13.8 kmh ESE 16.0 mph25.7 kmh 29.99 in1015.6 mb 0.00 in0.0 mm 0.00 in/hr0.0 mm/hr 0.00 in0.0 mm
09:10 AM 77.6°F25.3°C 67.9°F19.9°C 72% 9.9 mph E15.9 kmh E 16.0 mph25.7 kmh 29.98 in1015.2 mb 0.00 in0.0 mm 0.00 in/hr0.0 mm/hr 0.00 in0.0 mm
09:00 AM 77.6°F25.3°C 67.1°F19.5°C 70% 4.9 mph E7.9 kmh E 10.0 mph16.1 kmh 29.98 in1015.2 mb 0.00 in0.0 mm 0.00 in/hr0.0 mm/hr 0.00 in0.0 mm
08:50 AM 77.0°F25.0°C 65.6°F18.7°C 68% 4.0 mph NE6.4 kmh NE 9.0 mph14.5 kmh 29.98 in1015.2 mb 0.00 in0.0 mm 0.00 in/hr0.0 mm/hr 0.00 in0.0 mm
08:40 AM 76.7°F24.8°C 66.2°F19.0°C 70% 3.7 mph ESE6.0 kmh ESE 7.0 mph11.3 kmh 29.99 in1015.6 mb 0.00 in0.0 mm 0.00 in/hr0.0 mm/hr 0.00 in0.0 mm
08:30 AM 76.1°F24.5°C 65.1°F18.4°C 69% 4.5 mph E7.2 kmh E 10.0 mph16.1 kmh 29.99 in1015.6 mb 0.00 in0.0 mm 0.00 in/hr0.0 mm/hr 0.00 in0.0 mm
08:20 AM 75.3°F24.1°C 64.5°F18.1°C 69% 8.6 mph E13.8 kmh E 13.0 mph20.9 kmh 29.98 in1015.2 mb 0.00 in0.0 mm 0.00 in/hr0.0 mm/hr 0.00 in0.0 mm
08:10 AM 74.3°F23.5°C 64.7°F18.2°C 72% 6.5 mph ENE10.5 kmh ENE 11.0 mph17.7 kmh 29.98 in1015.2 mb 0.00 in0.0 mm 0.00 in/hr0.0 mm/hr 0.00 in0.0 mm
08:00 AM 73.6°F23.1°C 64.0°F17.8°C 72% 2.4 mph ENE3.9 kmh ENE 7.0 mph11.3 kmh 29.98 in1015.2 mb 0.00 in0.0 mm 0.00 in/hr0.0 mm/hr 0.00 in0.0 mm
07:50 AM 72.2°F22.3°C 62.7°F17.1°C 72% 5.0 mph ENE8.0 kmh ENE 9.0 mph14.5 kmh 29.98 in1015.2 mb 0.00 in0.0 mm 0.00 in/hr0.0 mm/hr 0.00 in0.0 mm
07:40 AM 70.5°F21.4°C 62.2°F16.8°C 75% 3.2 mph NE5.1 kmh NE 11.0 mph17.7 kmh 29.97 in1014.9 mb 0.00 in0.0 mm 0.00 in/hr0.0 mm/hr 0.00 in0.0 mm
07:30 AM 69.9°F21.1°C 62.7°F17.1°C 78% 2.7 mph E4.3 kmh E 8.0 mph12.9 kmh 29.97 in1014.9 mb 0.00 in0.0 mm 0.00 in/hr0.0 mm/hr 0.00 in0.0 mm
07:20 AM 69.6°F20.9°C 62.4°F16.9°C 78% 5.2 mph E8.4 kmh E 6.0 mph9.7 kmh 29.97 in1014.9 mb 0.00 in0.0 mm 0.00 in/hr0.0 mm/hr 0.00 in0.0 mm
07:10 AM 69.1°F20.6°C 61.9°F16.6°C 78% 6.5 mph E10.5 kmh E 10.0 mph16.1 kmh 29.96 in1014.6 mb 0.00 in0.0 mm 0.00 in/hr0.0 mm/hr 0.00 in0.0 mm
07:00 AM 68.9°F20.5°C 62.1°F16.7°C 79% 6.4 mph E10.3 kmh E 11.0 mph17.7 kmh 29.96 in1014.6 mb 0.00 in0.0 mm 0.00 in/hr0.0 mm/hr 0.00 in0.0 mm
06:50 AM 68.8°F20.4°C 61.7°F16.5°C 78% 6.7 mph E10.8 kmh E 12.0 mph19.3 kmh 29.95 in1014.2 mb 0.00 in0.0 mm 0.00 in/hr0.0 mm/hr 0.00 in0.0 mm
06:40 AM 68.5°F20.3°C 61.4°F16.3°C 78% 5.3 mph E8.5 kmh E 12.0 mph19.3 kmh 29.94 in1013.9 mb 0.00 in0.0 mm 0.00 in/hr0.0 mm/hr 0.00 in0.0 mm
06:30 AM 68.4°F20.2°C 60.9°F16.1°C 77% 7.3 mph E11.7 kmh E 10.0 mph16.1 kmh 29.94 in1013.9 mb 0.00 in0.0 mm 0.00 in/hr0.0 mm/hr 0.00 in0.0 mm
06:20 AM 68.3°F20.2°C 60.4°F15.8°C 76% 6.4 mph E10.3 kmh E 10.0 mph16.1 kmh 29.93 in1013.5 mb 0.00 in0.0 mm 0.00 in/hr0.0 mm/hr 0.00 in0.0 mm
06:10 AM 68.1°F20.1°C 59.9°F15.5°C 75% 4.4 mph E7.1 kmh E 8.0 mph12.9 kmh 29.92 in1013.2 mb 0.00 in0.0 mm 0.00 in/hr0.0 mm/hr 0.00 in0.0 mm
06:00 AM 68.2°F20.1°C 60.0°F15.6°C 75% 5.0 mph ENE8.0 kmh ENE 9.0 mph14.5 kmh 29.92 in1013.2 mb 0.00 in0.0 mm 0.00 in/hr0.0 mm/hr 0.00 in0.0 mm
05:50 AM 68.5°F20.3°C 61.0°F16.1°C 77% 4.6 mph NE7.4 kmh NE 10.0 mph16.1 kmh 29.92 in1013.2 mb 0.00 in0.0 mm 0.00 in/hr0.0 mm/hr 0.00 in0.0 mm
05:40 AM 68.6°F20.3°C 60.7°F15.9°C 76% 4.0 mph E6.4 kmh E 9.0 mph14.5 kmh 29.92 in1013.2 mb 0.00 in0.0 mm 0.00 in/hr0.0 mm/hr 0.00 in0.0 mm
05:30 AM 68.5°F20.3°C 61.0°F16.1°C 77% 5.9 mph E9.5 kmh E 7.0 mph11.3 kmh 29.92 in1013.2 mb 0.00 in0.0 mm 0.00 in/hr0.0 mm/hr 0.00 in0.0 mm
05:20 AM 68.6°F20.3°C 61.8°F16.6°C 79% 5.7 mph E9.2 kmh E 6.0 mph9.7 kmh 29.92 in1013.2 mb 0.00 in0.0 mm 0.00 in/hr0.0 mm/hr 0.00 in0.0 mm
05:10 AM 68.5°F20.3°C 62.1°F16.7°C 80% 6.4 mph E10.3 kmh E 11.0 mph17.7 kmh 29.92 in1013.2 mb 0.00 in0.0 mm 0.00 in/hr0.0 mm/hr 0.00 in0.0 mm
05:00 AM 68.8°F20.4°C 62.4°F16.9°C 80% 6.8 mph ENE10.9 kmh ENE 11.0 mph17.7 kmh 29.92 in1013.2 mb 0.00 in0.0 mm 0.00 in/hr0.0 mm/hr 0.00 in0.0 mm
04:50 AM 69.2°F20.7°C 61.7°F16.5°C 77% 4.8 mph ENE7.7 kmh ENE 9.0 mph14.5 kmh 29.93 in1013.5 mb 0.00 in0.0 mm 0.00 in/hr0.0 mm/hr 0.00 in0.0 mm
04:40 AM 69.0°F20.6°C 61.5°F16.4°C 77% 3.7 mph E6.0 kmh E 7.0 mph11.3 kmh 29.92 in1013.2 mb 0.00 in0.0 mm 0.00 in/hr0.0 mm/hr 0.00 in0.0 mm
04:30 AM 68.8°F20.4°C 61.7°F16.5°C 78% 6.6 mph E10.6 kmh E 11.0 mph17.7 kmh 29.92 in1013.2 mb 0.00 in0.0 mm 0.00 in/hr0.0 mm/hr 0.00 in0.0 mm
04:20 AM 68.6°F20.3°C 61.1°F16.2°C 77% 1.1 mph E1.8 kmh E 4.0 mph6.4 kmh 29.92 in1013.2 mb 0.00 in0.0 mm 0.00 in/hr0.0 mm/hr 0.00 in0.0 mm
04:10 AM 68.5°F20.3°C 61.7°F16.5°C 79% 3.4 mph E5.5 kmh E 6.0 mph9.7 kmh 29.92 in1013.2 mb 0.00 in0.0 mm 0.00 in/hr0.0 mm/hr 0.00 in0.0 mm
04:00 AM 68.6°F20.3°C 62.2°F16.8°C 80% 5.2 mph E8.4 kmh E 11.0 mph17.7 kmh 29.92 in1013.2 mb 0.00 in0.0 mm 0.00 in/hr0.0 mm/hr 0.00 in0.0 mm
03:50 AM 68.8°F20.4°C 62.0°F16.7°C 79% 5.2 mph E8.4 kmh E 8.0 mph12.9 kmh 29.92 in1013.2 mb 0.00 in0.0 mm 0.00 in/hr0.0 mm/hr 0.00 in0.0 mm
03:40 AM 69.1°F20.6°C 62.7°F17.1°C 80% 4.2 mph E6.8 kmh E 6.0 mph9.7 kmh 29.92 in1013.2 mb 0.00 in0.0 mm 0.00 in/hr0.0 mm/hr 0.00 in0.0 mm
03:30 AM 69.1°F20.6°C 62.7°F17.1°C 80% 5.6 mph E9.0 kmh E 11.0 mph17.7 kmh 29.93 in1013.5 mb 0.00 in0.0 mm 0.00 in/hr0.0 mm/hr 0.00 in0.0 mm
03:20 AM 69.0°F20.6°C 62.9°F17.2°C 81% 5.9 mph E9.5 kmh E 10.0 mph16.1 kmh 29.93 in1013.5 mb 0.00 in0.0 mm 0.00 in/hr0.0 mm/hr 0.00 in0.0 mm
03:10 AM 69.1°F20.6°C 63.4°F17.4°C 82% 6.8 mph E10.9 kmh E 10.0 mph16.1 kmh 29.93 in1013.5 mb 0.00 in0.0 mm 0.00 in/hr0.0 mm/hr 0.00 in0.0 mm
03:00 AM 69.2°F20.7°C 63.5°F17.5°C 82% 8.4 mph ENE13.5 kmh ENE 10.0 mph16.1 kmh 29.93 in1013.5 mb 0.00 in0.0 mm 0.00 in/hr0.0 mm/hr 0.00 in0.0 mm
02:50 AM 69.4°F20.8°C 63.7°F17.6°C 82% 8.2 mph E13.2 kmh E 13.0 mph20.9 kmh 29.93 in1013.5 mb 0.00 in0.0 mm 0.00 in/hr0.0 mm/hr 0.00 in0.0 mm
02:40 AM 69.2°F20.7°C 63.1°F17.3°C 81% 9.5 mph E15.3 kmh E 15.0 mph24.1 kmh 29.94 in1013.9 mb 0.00 in0.0 mm 0.00 in/hr0.0 mm/hr 0.00 in0.0 mm
02:30 AM 69.1°F20.6°C 63.0°F17.2°C 81% 8.6 mph E13.8 kmh E 15.0 mph24.1 kmh 29.93 in1013.5 mb 0.00 in0.0 mm 0.00 in/hr0.0 mm/hr 0.00 in0.0 mm
02:20 AM 69.7°F20.9°C 62.9°F17.2°C 79% 5.8 mph ENE9.3 kmh ENE 11.0 mph17.7 kmh 29.93 in1013.5 mb 0.00 in0.0 mm 0.00 in/hr0.0 mm/hr 0.00 in0.0 mm
02:10 AM 69.7°F20.9°C 62.9°F17.2°C 79% 7.5 mph E12.1 kmh E 13.0 mph20.9 kmh 29.93 in1013.5 mb 0.00 in0.0 mm 0.00 in/hr0.0 mm/hr 0.00 in0.0 mm
02:00 AM 69.7°F20.9°C 63.3°F17.4°C 80% 9.7 mph E15.6 kmh E 14.0 mph22.5 kmh 29.94 in1013.9 mb 0.00 in0.0 mm 0.00 in/hr0.0 mm/hr 0.00 in0.0 mm
01:50 AM 69.9°F21.1°C 63.4°F17.4°C 80% 9.0 mph E14.5 kmh E 12.0 mph19.3 kmh 29.94 in1013.9 mb 0.00 in0.0 mm 0.00 in/hr0.0 mm/hr 0.00 in0.0 mm
01:40 AM 70.0°F21.1°C 63.2°F17.3°C 79% 6.0 mph E9.7 kmh E 8.0 mph12.9 kmh 29.94 in1013.9 mb 0.00 in0.0 mm 0.00 in/hr0.0 mm/hr 0.00 in0.0 mm
01:30 AM 69.7°F20.9°C 63.6°F17.6°C 81% 8.4 mph E13.5 kmh E 11.0 mph17.7 kmh 29.94 in1013.9 mb 0.00 in0.0 mm 0.00 in/hr0.0 mm/hr 0.00 in0.0 mm
01:20 AM 69.6°F20.9°C 63.5°F17.5°C 81% 4.7 mph E7.6 kmh E 9.0 mph14.5 kmh 29.95 in1014.2 mb 0.00 in0.0 mm 0.00 in/hr0.0 mm/hr 0.00 in0.0 mm
01:10 AM 69.6°F20.9°C 63.9°F17.7°C 82% 11.2 mph ESE18.0 kmh ESE 13.0 mph20.9 kmh 29.95 in1014.2 mb 0.00 in0.0 mm 0.00 in/hr0.0 mm/hr 0.00 in0.0 mm
01:00 AM 69.4°F20.8°C 63.7°F17.6°C 82% 8.0 mph E12.9 kmh E 10.0 mph16.1 kmh 29.95 in1014.2 mb 0.00 in0.0 mm 0.00 in/hr0.0 mm/hr 0.00 in0.0 mm
12:50 AM 69.3°F20.7°C 63.9°F17.7°C 83% 10.2 mph E16.4 kmh E 15.0 mph24.1 kmh 29.95 in1014.2 mb 0.00 in0.0 mm 0.00 in/hr0.0 mm/hr 0.00 in0.0 mm
12:40 AM 69.1°F20.6°C 64.4°F18.0°C 85% 7.5 mph E12.1 kmh E 12.0 mph19.3 kmh 29.95 in1014.2 mb 0.00 in0.0 mm 0.00 in/hr0.0 mm/hr 0.00 in0.0 mm
12:30 AM 69.0°F20.6°C 64.3°F17.9°C 85% 4.4 mph E7.1 kmh E 8.0 mph12.9 kmh 29.95 in1014.2 mb 0.00 in0.0 mm 0.00 in/hr0.0 mm/hr 0.00 in0.0 mm
12:20 AM 69.3°F20.7°C 64.9°F18.3°C 86% 7.9 mph E12.7 kmh E 10.0 mph16.1 kmh 29.96 in1014.6 mb 0.00 in0.0 mm 0.00 in/hr0.0 mm/hr 0.00 in0.0 mm
12:10 AM 69.1°F20.6°C 64.8°F18.2°C 86% 8.3 mph E13.4 kmh E 15.0 mph24.1 kmh 29.96 in1014.6 mb 0.00 in0.0 mm 0.00 in/hr0.0 mm/hr 0.00 in0.0 mm
12:00 AM 68.9°F20.5°C 64.9°F18.3°C 87% 5.5 mph E8.9 kmh E 8.0 mph12.9 kmh 29.96 in1014.6 mb 0.00 in0.0 mm 0.00 in/hr0.0 mm/hr 0.00 in0.0 mm